sensor_id;sensor_type;location;lat;lon;timestamp;pressure;altitude;pressure_sealevel;temperature;humidity
35519;BME280;21627;48.216;16.482;2023-08-07T00:02:10;98975.88;;;14.48;100.00
35519;BME280;21627;48.216;16.482;2023-08-07T00:04:38;98970.00;;;14.42;100.00
35519;BME280;21627;48.216;16.482;2023-08-07T00:07:06;98984.53;;;14.49;100.00
35519;BME280;21627;48.216;16.482;2023-08-07T00:09:33;98973.31;;;14.47;100.00
35519;BME280;21627;48.216;16.482;2023-08-07T00:12:00;98972.66;;;14.39;100.00
35519;BME280;21627;48.216;16.482;2023-08-07T00:14:27;98969.19;;;14.40;100.00
35519;BME280;21627;48.216;16.482;2023-08-07T00:16:54;98969.91;;;14.45;100.00
35519;BME280;21627;48.216;16.482;2023-08-07T00:19:24;98967.44;;;14.40;100.00
35519;BME280;21627;48.216;16.482;2023-08-07T00:21:51;98975.97;;;14.45;100.00
35519;BME280;21627;48.216;16.482;2023-08-07T00:24:19;98964.50;;;14.54;100.00
35519;BME280;21627;48.216;16.482;2023-08-07T00:26:46;98965.34;;;14.55;100.00
35519;BME280;21627;48.216;16.482;2023-08-07T00:29:13;98963.63;;;14.52;100.00
35519;BME280;21627;48.216;16.482;2023-08-07T00:31:40;98974.72;;;14.59;100.00
35519;BME280;21627;48.216;16.482;2023-08-07T00:34:07;98996.59;;;14.52;100.00
35519;BME280;21627;48.216;16.482;2023-08-07T00:36:36;99000.00;;;14.55;100.00
35519;BME280;21627;48.216;16.482;2023-08-07T00:39:03;98994.84;;;14.52;100.00
35519;BME280;21627;48.216;16.482;2023-08-07T00:41:30;98988.97;;;14.45;100.00
35519;BME280;21627;48.216;16.482;2023-08-07T00:43:57;98993.28;;;14.46;100.00
35519;BME280;21627;48.216;16.482;2023-08-07T00:46:24;99006.09;;;14.54;100.00
35519;BME280;21627;48.216;16.482;2023-08-07T00:48:52;98983.63;;;14.50;100.00
35519;BME280;21627;48.216;16.482;2023-08-07T00:51:21;99001.13;;;14.45;100.00
35519;BME280;21627;48.216;16.482;2023-08-07T00:53:49;98999.28;;;14.48;100.00
35519;BME280;21627;48.216;16.482;2023-08-07T00:56:17;99013.09;;;14.50;100.00
35519;BME280;21627;48.216;16.482;2023-08-07T00:58:44;99010.50;;;14.50;100.00
35519;BME280;21627;48.216;16.482;2023-08-07T01:01:12;99015.75;;;14.49;100.00
35519;BME280;21627;48.216;16.482;2023-08-07T01:03:39;98999.44;;;14.44;100.00
35519;BME280;21627;48.216;16.482;2023-08-07T01:06:06;99018.28;;;14.50;100.00
35519;BME280;21627;48.216;16.482;2023-08-07T01:08:33;99023.44;;;14.54;100.00
35519;BME280;21627;48.216;16.482;2023-08-07T01:16:58;99006.09;;;14.53;100.00
35519;BME280;21627;48.216;16.482;2023-08-07T01:19:28;99017.34;;;14.55;100.00
35519;BME280;21627;48.216;16.482;2023-08-07T01:22:09;99020.16;;;14.47;100.00
35519;BME280;21627;48.216;16.482;2023-08-07T01:24:38;99020.09;;;14.48;100.00
35519;BME280;21627;48.216;16.482;2023-08-07T01:27:44;99036.44;;;14.54;100.00
35519;BME280;21627;48.216;16.482;2023-08-07T01:30:50;99032.91;;;14.56;100.00
35519;BME280;21627;48.216;16.482;2023-08-07T01:33:47;99037.41;;;14.49;100.00
35519;BME280;21627;48.216;16.482;2023-08-07T01:36:16;99022.84;;;14.44;100.00
35519;BME280;21627;48.216;16.482;2023-08-07T01:38:45;99015.03;;;14.44;100.00
35519;BME280;21627;48.216;16.482;2023-08-07T01:41:15;99040.69;;;14.58;100.00
35519;BME280;21627;48.216;16.482;2023-08-07T01:43:43;99044.09;;;14.60;100.00
35519;BME280;21627;48.216;16.482;2023-08-07T01:46:11;99039.03;;;14.55;100.00
35519;BME280;21627;48.216;16.482;2023-08-07T01:48:38;99036.41;;;14.55;100.00
35519;BME280;21627;48.216;16.482;2023-08-07T01:51:05;99032.16;;;14.51;100.00
35519;BME280;21627;48.216;16.482;2023-08-07T01:53:32;99027.03;;;14.48;100.00
35519;BME280;21627;48.216;16.482;2023-08-07T01:55:59;99036.44;;;14.54;100.00
35519;BME280;21627;48.216;16.482;2023-08-07T01:58:26;99023.38;;;14.57;100.00
35519;BME280;21627;48.216;16.482;2023-08-07T02:00:54;99041.31;;;14.66;100.00
35519;BME280;21627;48.216;16.482;2023-08-07T02:03:21;99040.69;;;14.58;100.00
35519;BME280;21627;48.216;16.482;2023-08-07T02:05:48;99023.41;;;14.55;100.00
35519;BME280;21627;48.216;16.482;2023-08-07T02:08:15;99040.69;;;14.58;100.00
35519;BME280;21627;48.216;16.482;2023-08-07T02:10:42;99052.84;;;14.57;100.00
35519;BME280;21627;48.216;16.482;2023-08-07T02:13:09;99053.72;;;14.56;100.00
35519;BME280;21627;48.216;16.482;2023-08-07T02:15:37;99048.50;;;14.56;100.00
35519;BME280;21627;48.216;16.482;2023-08-07T02:18:04;99057.78;;;14.66;100.00
35519;BME280;21627;48.216;16.482;2023-08-07T02:20:31;99054.41;;;14.63;100.00
35519;BME280;21627;48.216;16.482;2023-08-07T02:22:58;99056.91;;;14.66;100.00
35519;BME280;21627;48.216;16.482;2023-08-07T02:25:25;99055.97;;;14.70;100.00
35519;BME280;21627;48.216;16.482;2023-08-07T02:27:52;99051.78;;;14.64;100.00
35519;BME280;21627;48.216;16.482;2023-08-07T02:30:19;99066.47;;;14.65;100.00
35519;BME280;21627;48.216;16.482;2023-08-07T02:32:46;99054.28;;;14.67;100.00
35519;BME280;21627;48.216;16.482;2023-08-07T02:35:14;99049.97;;;14.66;100.00
35519;BME280;21627;48.216;16.482;2023-08-07T02:37:41;99044.03;;;14.61;100.00
35519;BME280;21627;48.216;16.482;2023-08-07T02:40:09;99056.28;;;14.58;100.00
35519;BME280;21627;48.216;16.482;2023-08-07T02:42:38;99049.44;;;14.54;100.00
35519;BME280;21627;48.216;16.482;2023-08-07T02:45:05;99045.75;;;14.62;100.00
35519;BME280;21627;48.216;16.482;2023-08-07T02:47:33;99044.97;;;14.59;100.00
35519;BME280;21627;48.216;16.482;2023-08-07T02:50:00;99034.63;;;14.57;100.00
35519;BME280;21627;48.216;16.482;2023-08-07T02:52:27;99031.31;;;14.50;100.00
35519;BME280;21627;48.216;16.482;2023-08-07T02:54:54;99012.97;;;14.57;100.00
35519;BME280;21627;48.216;16.482;2023-08-07T02:57:21;99034.75;;;14.51;100.00
35519;BME280;21627;48.216;16.482;2023-08-07T02:59:48;99024.56;;;14.43;100.00
35519;BME280;21627;48.216;16.482;2023-08-07T03:02:15;99031.31;;;14.50;100.00
35519;BME280;21627;48.216;16.482;2023-08-07T03:04:42;99019.16;;;14.51;100.00
35519;BME280;21627;48.216;16.482;2023-08-07T03:07:09;99027.56;;;14.62;100.00
35519;BME280;21627;48.216;16.482;2023-08-07T03:09:36;99036.31;;;14.58;100.00
35519;BME280;21627;48.216;16.482;2023-08-07T03:12:04;99031.38;;;14.49;100.00
35519;BME280;21627;48.216;16.482;2023-08-07T03:14:32;99047.81;;;14.49;100.00
35519;BME280;21627;48.216;16.482;2023-08-07T03:16:59;99042.53;;;14.54;100.00
35519;BME280;21627;48.216;16.482;2023-08-07T03:19:26;99025.06;;;14.58;100.00
35519;BME280;21627;48.216;16.482;2023-08-07T03:21:53;99022.56;;;14.55;99.11
35519;BME280;21627;48.216;16.482;2023-08-07T03:24:20;99033.72;;;14.58;99.98
35519;BME280;21627;48.216;16.482;2023-08-07T03:26:47;99014.03;;;14.48;100.00
35519;BME280;21627;48.216;16.482;2023-08-07T03:29:16;99021.75;;;14.51;99.70
35519;BME280;21627;48.216;16.482;2023-08-07T03:31:43;99045.25;;;14.48;100.00
35519;BME280;21627;48.216;16.482;2023-08-07T03:34:10;99032.34;;;14.45;100.00
35519;BME280;21627;48.216;16.482;2023-08-07T03:36:37;99033.06;;;14.50;98.59
35519;BME280;21627;48.216;16.482;2023-08-07T03:39:04;99024.63;;;14.42;100.00
35519;BME280;21627;48.216;16.482;2023-08-07T03:41:32;99029.94;;;14.37;100.00
35519;BME280;21627;48.216;16.482;2023-08-07T03:43:59;99016.25;;;14.31;100.00
35519;BME280;21627;48.216;16.482;2023-08-07T03:46:26;99035.03;;;14.42;100.00
35519;BME280;21627;48.216;16.482;2023-08-07T03:48:53;99012.66;;;14.35;100.00
35519;BME280;21627;48.216;16.482;2023-08-07T03:51:20;99032.47;;;14.39;100.00
35519;BME280;21627;48.216;16.482;2023-08-07T03:53:47;99019.53;;;14.37;98.97
35519;BME280;21627;48.216;16.482;2023-08-07T03:56:14;99035.03;;;14.42;98.45
35519;BME280;21627;48.216;16.482;2023-08-07T03:58:42;99027.25;;;14.40;99.98
35519;BME280;21627;48.216;16.482;2023-08-07T04:01:09;99024.88;;;14.31;100.00
35519;BME280;21627;48.216;16.482;2023-08-07T04:03:37;99030.06;;;14.33;100.00
35519;BME280;21627;48.216;16.482;2023-08-07T04:06:05;99032.66;;;14.33;100.00
35519;BME280;21627;48.216;16.482;2023-08-07T04:08:33;99038.56;;;14.39;100.00
35519;BME280;21627;48.216;16.482;2023-08-07T04:11:04;99034.00;;;14.47;100.00
35519;BME280;21627;48.216;16.482;2023-08-07T04:13:32;99028.19;;;14.38;100.00
35519;BME280;21627;48.216;16.482;2023-08-07T04:15:59;99029.94;;;14.37;100.00
35519;BME280;21627;48.216;16.482;2023-08-07T04:18:28;99034.31;;;14.35;100.00
35519;BME280;21627;48.216;16.482;2023-08-07T04:20:56;99024.94;;;14.29;100.00
35519;BME280;21627;48.216;16.482;2023-08-07T04:23:24;99020.72;;;14.25;100.00
35519;BME280;21627;48.216;16.482;2023-08-07T04:25:52;99029.22;;;14.32;100.00
35519;BME280;21627;48.216;16.482;2023-08-07T04:28:20;99008.53;;;14.27;100.00
35519;BME280;21627;48.216;16.482;2023-08-07T04:30:51;99026.56;;;14.34;100.00
35519;BME280;21627;48.216;16.482;2023-08-07T04:33:20;99033.50;;;14.33;100.00
35519;BME280;21627;48.216;16.482;2023-08-07T04:35:48;99022.97;;;14.38;100.00
35519;BME280;21627;48.216;16.482;2023-08-07T04:38:16;99030.75;;;14.39;100.00
35519;BME280;21627;48.216;16.482;2023-08-07T04:40:47;99042.75;;;14.43;100.00
35519;BME280;21627;48.216;16.482;2023-08-07T04:43:16;99037.75;;;14.37;100.00
35519;BME280;21627;48.216;16.482;2023-08-07T04:45:44;99039.56;;;14.34;100.00
35519;BME280;21627;48.216;16.482;2023-08-07T04:48:13;99050.84;;;14.34;100.00
35519;BME280;21627;48.216;16.482;2023-08-07T04:50:41;99054.44;;;14.28;100.00
35519;BME280;21627;48.216;16.482;2023-08-07T04:53:08;99036.19;;;14.30;100.00
35519;BME280;21627;48.216;16.482;2023-08-07T04:55:36;99052.56;;;14.34;100.00
35519;BME280;21627;48.216;16.482;2023-08-07T04:58:03;99058.75;;;14.29;100.00
35519;BME280;21627;48.216;16.482;2023-08-07T05:00:30;99056.28;;;14.23;100.00
35519;BME280;21627;48.216;16.482;2023-08-07T05:02:57;99064.91;;;14.25;100.00
35519;BME280;21627;48.216;16.482;2023-08-07T05:05:24;99054.44;;;14.28;100.00
35519;BME280;21627;48.216;16.482;2023-08-07T05:07:51;99075.22;;;14.28;100.00
35519;BME280;21627;48.216;16.482;2023-08-07T05:10:19;99084.97;;;14.22;100.00
35519;BME280;21627;48.216;16.482;2023-08-07T05:12:46;99069.06;;;14.33;100.00
35519;BME280;21627;48.216;16.482;2023-08-07T05:15:13;99073.13;;;14.43;100.00
35519;BME280;21627;48.216;16.482;2023-08-07T05:17:40;99074.66;;;14.52;100.00
35519;BME280;21627;48.216;16.482;2023-08-07T05:20:08;99081.47;;;14.57;100.00
35519;BME280;21627;48.216;16.482;2023-08-07T05:22:35;99070.13;;;14.60;100.00
35519;BME280;21627;48.216;16.482;2023-08-07T05:25:05;99072.59;;;14.64;100.00
35519;BME280;21627;48.216;16.482;2023-08-07T05:27:32;99073.22;;;14.73;100.00
35519;BME280;21627;48.216;16.482;2023-08-07T05:29:59;99073.94;;;14.78;100.00
35519;BME280;21627;48.216;16.482;2023-08-07T05:32:27;99077.53;;;14.74;100.00
35519;BME280;21627;48.216;16.482;2023-08-07T05:34:55;99096.63;;;14.74;99.23
35519;BME280;21627;48.216;16.482;2023-08-07T05:37:22;99074.28;;;14.65;100.00
35519;BME280;21627;48.216;16.482;2023-08-07T05:39:49;99077.84;;;14.61;100.00
35519;BME280;21627;48.216;16.482;2023-08-07T05:42:16;99068.44;;;14.57;99.92
35519;BME280;21627;48.216;16.482;2023-08-07T05:44:43;99074.59;;;14.55;99.72
35519;BME280;21627;48.216;16.482;2023-08-07T05:47:11;99076.47;;;14.48;99.34
35519;BME280;21627;48.216;16.482;2023-08-07T05:49:38;99093.22;;;14.38;100.00
35519;BME280;21627;48.216;16.482;2023-08-07T05:52:05;99083.84;;;14.31;100.00
35519;BME280;21627;48.216;16.482;2023-08-07T05:54:33;99088.00;;;14.38;100.00
35519;BME280;21627;48.216;16.482;2023-08-07T05:57:00;99091.63;;;14.32;100.00
35519;BME280;21627;48.216;16.482;2023-08-07T05:59:27;99099.38;;;14.34;98.21
35519;BME280;21627;48.216;16.482;2023-08-07T06:01:55;99097.75;;;14.29;97.71
35519;BME280;21627;48.216;16.482;2023-08-07T06:04:26;99104.75;;;14.26;99.81
35519;BME280;21627;48.216;16.482;2023-08-07T06:06:53;99112.63;;;14.24;100.00
35519;BME280;21627;48.216;16.482;2023-08-07T06:09:21;99101.28;;;14.27;98.13
35519;BME280;21627;48.216;16.482;2023-08-07T06:11:48;99113.44;;;14.26;99.00
35519;BME280;21627;48.216;16.482;2023-08-07T06:14:15;99104.94;;;14.20;99.12
35519;BME280;21627;48.216;16.482;2023-08-07T06:16:43;99122.41;;;14.13;100.00
35519;BME280;21627;48.216;16.482;2023-08-07T06:19:10;99113.56;;;14.22;100.00
35519;BME280;21627;48.216;16.482;2023-08-07T06:21:55;99109.38;;;14.16;99.54
35519;BME280;21627;48.216;16.482;2023-08-07T06:24:23;99124.09;;;14.16;100.00
35519;BME280;21627;48.216;16.482;2023-08-07T06:26:52;99124.91;;;14.18;99.60
35519;BME280;21627;48.216;16.482;2023-08-07T06:29:19;99138.72;;;14.20;98.24
35519;BME280;21627;48.216;16.482;2023-08-07T06:31:46;99139.50;;;14.23;98.36
35519;BME280;21627;48.216;16.482;2023-08-07T06:34:13;99131.75;;;14.22;95.90
35519;BME280;21627;48.216;16.482;2023-08-07T06:36:40;99116.25;;;14.19;97.62
35519;BME280;21627;48.216;16.482;2023-08-07T06:39:07;99109.22;;;14.21;99.92
35519;BME280;21627;48.216;16.482;2023-08-07T06:41:35;99104.09;;;14.19;99.76
35519;BME280;21627;48.216;16.482;2023-08-07T06:44:03;99140.25;;;14.28;95.57
35519;BME280;21627;48.216;16.482;2023-08-07T06:46:33;99131.47;;;14.33;97.49
35519;BME280;21627;48.216;16.482;2023-08-07T06:49:01;99130.25;;;14.47;97.88
35519;BME280;21627;48.216;16.482;2023-08-07T06:51:28;99156.22;;;14.49;97.81
35519;BME280;21627;48.216;16.482;2023-08-07T06:53:55;99160.34;;;14.58;97.21
35519;BME280;21627;48.216;16.482;2023-08-07T06:56:22;99152.44;;;14.62;96.59
35519;BME280;21627;48.216;16.482;2023-08-07T06:58:49;99176.59;;;14.67;95.45
35519;BME280;21627;48.216;16.482;2023-08-07T07:01:16;99145.13;;;14.77;92.68
35519;BME280;21627;48.216;16.482;2023-08-07T07:03:43;99165.94;;;14.77;93.50
35519;BME280;21627;48.216;16.482;2023-08-07T07:06:14;99160.69;;;14.78;93.08
35519;BME280;21627;48.216;16.482;2023-08-07T07:08:41;99166.69;;;14.82;95.37
35519;BME280;21627;48.216;16.482;2023-08-07T07:11:08;99152.53;;;14.92;92.83
35519;BME280;21627;48.216;16.482;2023-08-07T07:13:35;99161.09;;;14.94;91.15
35519;BME280;21627;48.216;16.482;2023-08-07T07:16:03;99153.06;;;15.03;93.42
35519;BME280;21627;48.216;16.482;2023-08-07T07:18:30;99155.03;;;14.95;89.23
35519;BME280;21627;48.216;16.482;2023-08-07T07:21:00;99166.25;;;14.97;91.09
35519;BME280;21627;48.216;16.482;2023-08-07T07:23:28;99155.78;;;14.99;92.56
35519;BME280;21627;48.216;16.482;2023-08-07T07:25:55;99159.31;;;14.96;91.05
35519;BME280;21627;48.216;16.482;2023-08-07T07:28:23;99154.97;;;14.97;89.63
35519;BME280;21627;48.216;16.482;2023-08-07T07:30:50;99170.00;;;14.87;90.98
35519;BME280;21627;48.216;16.482;2023-08-07T07:33:17;99153.59;;;14.83;93.68
35519;BME280;21627;48.216;16.482;2023-08-07T07:35:44;99168.50;;;14.78;93.18
35519;BME280;21627;48.216;16.482;2023-08-07T07:38:12;99149.44;;;14.76;94.45
35519;BME280;21627;48.216;16.482;2023-08-07T07:40:39;99156.50;;;14.73;95.42
35519;BME280;21627;48.216;16.482;2023-08-07T07:43:06;99167.97;;;14.65;95.02
35519;BME280;21627;48.216;16.482;2023-08-07T07:45:34;99163.59;;;14.66;94.68
35519;BME280;21627;48.216;16.482;2023-08-07T07:48:03;99157.75;;;14.58;97.74
35519;BME280;21627;48.216;16.482;2023-08-07T07:50:31;99180.16;;;14.63;95.93
35519;BME280;21627;48.216;16.482;2023-08-07T07:52:58;99174.13;;;14.61;96.28
35519;BME280;21627;48.216;16.482;2023-08-07T07:55:25;99172.72;;;14.48;97.75
35519;BME280;21627;48.216;16.482;2023-08-07T07:57:54;99170.75;;;14.58;96.66
35519;BME280;21627;48.216;16.482;2023-08-07T08:00:22;99181.25;;;14.55;97.63
35519;BME280;21627;48.216;16.482;2023-08-07T08:02:54;99203.03;;;14.49;99.83
35519;BME280;21627;48.216;16.482;2023-08-07T08:05:21;99180.50;;;14.48;100.00
35519;BME280;21627;48.216;16.482;2023-08-07T08:07:48;99184.03;;;14.45;100.00
35519;BME280;21627;48.216;16.482;2023-08-07T08:10:16;99183.13;;;14.48;100.00
35519;BME280;21627;48.216;16.482;2023-08-07T08:12:43;99202.94;;;14.54;100.00
35519;BME280;21627;48.216;16.482;2023-08-07T08:15:10;99194.81;;;14.66;99.75
35519;BME280;21627;48.216;16.482;2023-08-07T08:17:37;99182.84;;;14.60;99.72
35519;BME280;21627;48.216;16.482;2023-08-07T08:20:06;99209.78;;;14.58;100.00
35519;BME280;21627;48.216;16.482;2023-08-07T08:22:34;99208.69;;;14.66;100.00
35519;BME280;21627;48.216;16.482;2023-08-07T08:25:02;99218.75;;;14.80;99.95
35519;BME280;21627;48.216;16.482;2023-08-07T08:27:31;99200.44;;;14.85;99.10
35519;BME280;21627;48.216;16.482;2023-08-07T08:29:58;99198.84;;;14.79;100.00
35519;BME280;21627;48.216;16.482;2023-08-07T08:32:25;99222.00;;;14.88;99.27
35519;BME280;21627;48.216;16.482;2023-08-07T08:34:53;99230.41;;;15.00;99.48
35519;BME280;21627;48.216;16.482;2023-08-07T08:37:20;99217.25;;;15.04;99.76
35519;BME280;21627;48.216;16.482;2023-08-07T08:39:47;99237.22;;;15.04;98.78
35519;BME280;21627;48.216;16.482;2023-08-07T08:42:15;99221.19;;;15.19;100.00
35519;BME280;21627;48.216;16.482;2023-08-07T08:44:51;99232.00;;;15.36;94.40
35519;BME280;21627;48.216;16.482;2023-08-07T08:47:20;99236.31;;;15.38;99.42
35519;BME280;21627;48.216;16.482;2023-08-07T08:49:54;99231.78;;;15.44;97.97
35519;BME280;21627;48.216;16.482;2023-08-07T08:52:27;99237.44;;;15.60;95.78
35519;BME280;21627;48.216;16.482;2023-08-07T08:54:57;99250.91;;;15.74;95.16
35519;BME280;21627;48.216;16.482;2023-08-07T08:57:28;99256.94;;;15.76;94.54
35519;BME280;21627;48.216;16.482;2023-08-07T08:59:56;99231.97;;;15.69;93.11
35519;BME280;21627;48.216;16.482;2023-08-07T09:02:23;99255.81;;;15.54;95.10
35519;BME280;21627;48.216;16.482;2023-08-07T09:04:51;99262.09;;;15.47;92.20
35519;BME280;21627;48.216;16.482;2023-08-07T09:07:20;99273.06;;;15.27;91.62
35519;BME280;21627;48.216;16.482;2023-08-07T09:09:48;99265.44;;;15.21;95.07
35519;BME280;21627;48.216;16.482;2023-08-07T09:12:21;99269.25;;;15.07;95.47
35519;BME280;21627;48.216;16.482;2023-08-07T09:14:56;99288.63;;;14.97;97.79
35519;BME280;21627;48.216;16.482;2023-08-07T09:17:33;99276.75;;;14.85;98.07
35519;BME280;21627;48.216;16.482;2023-08-07T09:20:02;99284.72;;;14.79;100.00
35519;BME280;21627;48.216;16.482;2023-08-07T09:22:31;99300.38;;;14.78;99.34
35519;BME280;21627;48.216;16.482;2023-08-07T09:24:58;99293.50;;;14.75;98.13
35519;BME280;21627;48.216;16.482;2023-08-07T09:27:27;99314.41;;;14.70;98.07
35519;BME280;21627;48.216;16.482;2023-08-07T09:29:55;99299.94;;;14.59;99.58
35519;BME280;21627;48.216;16.482;2023-08-07T09:32:23;99315.53;;;14.60;100.00
35519;BME280;21627;48.216;16.482;2023-08-07T09:34:51;99310.44;;;14.56;100.00
35519;BME280;21627;48.216;16.482;2023-08-07T09:37:19;99336.41;;;14.57;100.00
35519;BME280;21627;48.216;16.482;2023-08-07T09:39:46;99316.59;;;14.52;100.00
35519;BME280;21627;48.216;16.482;2023-08-07T09:42:15;99328.56;;;14.59;100.00
35519;BME280;21627;48.216;16.482;2023-08-07T09:44:43;99306.97;;;14.55;100.00
35519;BME280;21627;48.216;16.482;2023-08-07T09:47:17;99324.06;;;14.65;100.00
35519;BME280;21627;48.216;16.482;2023-08-07T09:49:46;99345.84;;;14.61;100.00
35519;BME280;21627;48.216;16.482;2023-08-07T09:52:14;99338.09;;;14.60;100.00
35519;BME280;21627;48.216;16.482;2023-08-07T09:54:42;99338.19;;;14.57;100.00
35519;BME280;21627;48.216;16.482;2023-08-07T09:57:09;99344.28;;;14.53;100.00
35519;BME280;21627;48.216;16.482;2023-08-07T09:59:36;99364.25;;;14.52;100.00
35519;BME280;21627;48.216;16.482;2023-08-07T10:02:04;99356.53;;;14.49;100.00
35519;BME280;21627;48.216;16.482;2023-08-07T10:04:32;99350.84;;;14.32;100.00
35519;BME280;21627;48.216;16.482;2023-08-07T10:07:01;99354.41;;;14.26;100.00
35519;BME280;21627;48.216;16.482;2023-08-07T10:09:29;99364.53;;;14.40;100.00
35519;BME280;21627;48.216;16.482;2023-08-07T10:11:58;99371.31;;;14.45;100.00
35519;BME280;21627;48.216;16.482;2023-08-07T10:14:25;99359.31;;;14.40;100.00
35519;BME280;21627;48.216;16.482;2023-08-07T10:16:54;99340.94;;;14.47;100.00
35519;BME280;21627;48.216;16.482;2023-08-07T10:19:22;99347.00;;;14.48;100.00
35519;BME280;21627;48.216;16.482;2023-08-07T10:21:50;99349.38;;;14.59;100.00
35519;BME280;21627;48.216;16.482;2023-08-07T10:24:17;99358.09;;;14.58;100.00
35519;BME280;21627;48.216;16.482;2023-08-07T10:26:46;99364.97;;;14.60;100.00
35519;BME280;21627;48.216;16.482;2023-08-07T10:29:18;99381.59;;;14.53;100.00
35519;BME280;21627;48.216;16.482;2023-08-07T10:31:46;99357.31;;;14.54;100.00
35519;BME280;21627;48.216;16.482;2023-08-07T10:34:14;99357.31;;;14.51;100.00
35519;BME280;21627;48.216;16.482;2023-08-07T10:36:41;99382.66;;;14.43;100.00
35519;BME280;21627;48.216;16.482;2023-08-07T10:39:10;99362.16;;;14.29;100.00
35519;BME280;21627;48.216;16.482;2023-08-07T10:41:40;99369.25;;;14.21;100.00
35519;BME280;21627;48.216;16.482;2023-08-07T10:44:22;99383.81;;;14.29;100.00
35519;BME280;21627;48.216;16.482;2023-08-07T10:46:55;99377.78;;;14.27;100.00
35519;BME280;21627;48.216;16.482;2023-08-07T10:49:37;99377.69;;;14.32;100.00
35519;BME280;21627;48.216;16.482;2023-08-07T10:52:14;99372.75;;;14.20;100.00
35519;BME280;21627;48.216;16.482;2023-08-07T10:54:51;99384.06;;;14.17;100.00
35519;BME280;21627;48.216;16.482;2023-08-07T10:57:19;99383.16;;;14.18;100.00
35519;BME280;21627;48.216;16.482;2023-08-07T11:02:29;99383.31;;;14.12;100.00
35519;BME280;21627;48.216;16.482;2023-08-07T11:04:57;99385.06;;;14.12;100.00
35519;BME280;21627;48.216;16.482;2023-08-07T11:07:29;99389.34;;;14.14;100.00
35519;BME280;21627;48.216;16.482;2023-08-07T11:09:58;99395.38;;;14.16;100.00
35519;BME280;21627;48.216;16.482;2023-08-07T11:12:27;99400.44;;;14.21;100.00
35519;BME280;21627;48.216;16.482;2023-08-07T11:14:55;99403.28;;;14.10;100.00
35519;BME280;21627;48.216;16.482;2023-08-07T11:17:27;99400.69;;;14.10;100.00
35519;BME280;21627;48.216;16.482;2023-08-07T11:19:56;99398.16;;;14.07;100.00
35519;BME280;21627;48.216;16.482;2023-08-07T11:22:23;99400.69;;;14.10;100.00
35519;BME280;21627;48.216;16.482;2023-08-07T11:24:51;99400.75;;;14.07;100.00
35519;BME280;21627;48.216;16.482;2023-08-07T11:27:21;99415.41;;;14.10;100.00
35519;BME280;21627;48.216;16.482;2023-08-07T11:29:48;99409.16;;;14.20;100.00
35519;BME280;21627;48.216;16.482;2023-08-07T11:32:21;99407.38;;;14.22;100.00
35519;BME280;21627;48.216;16.482;2023-08-07T11:34:49;99416.06;;;14.21;100.00
35519;BME280;21627;48.216;16.482;2023-08-07T11:37:19;99408.22;;;14.22;100.00
35519;BME280;21627;48.216;16.482;2023-08-07T11:39:47;99406.56;;;14.20;100.00
35519;BME280;21627;48.216;16.482;2023-08-07T11:42:15;99416.06;;;14.21;100.00
35519;BME280;21627;48.216;16.482;2023-08-07T11:44:42;99418.78;;;14.16;100.00
35519;BME280;21627;48.216;16.482;2023-08-07T11:47:10;99416.31;;;14.09;100.00
35519;BME280;21627;48.216;16.482;2023-08-07T11:49:37;99413.50;;;14.19;100.00
35519;BME280;21627;48.216;16.482;2023-08-07T11:52:05;99426.66;;;14.12;100.00
35519;BME280;21627;48.216;16.482;2023-08-07T11:54:33;99425.06;;;14.03;100.00
35519;BME280;21627;48.216;16.482;2023-08-07T11:57:00;99426.66;;;14.10;100.00
35519;BME280;21627;48.216;16.482;2023-08-07T11:59:27;99431.00;;;14.11;100.00
35519;BME280;21627;48.216;16.482;2023-08-07T12:01:54;99429.31;;;14.09;100.00
35519;BME280;21627;48.216;16.482;2023-08-07T12:04:21;99441.44;;;14.08;100.00
35519;BME280;21627;48.216;16.482;2023-08-07T12:06:56;99427.69;;;14.03;100.00
35519;BME280;21627;48.216;16.482;2023-08-07T12:09:27;99422.47;;;14.03;100.00
35519;BME280;21627;48.216;16.482;2023-08-07T12:11:58;99446.63;;;14.08;100.00
35519;BME280;21627;48.216;16.482;2023-08-07T12:14:30;99434.47;;;14.12;100.00
35519;BME280;21627;48.216;16.482;2023-08-07T12:16:57;99432.72;;;14.12;100.00
35519;BME280;21627;48.216;16.482;2023-08-07T12:19:36;99442.97;;;14.18;100.00
35519;BME280;21627;48.216;16.482;2023-08-07T12:22:07;99430.13;;;14.11;100.00
35519;BME280;21627;48.216;16.482;2023-08-07T12:24:36;99436.13;;;14.14;100.00
35519;BME280;21627;48.216;16.482;2023-08-07T12:27:07;99440.59;;;14.07;100.00
35519;BME280;21627;48.216;16.482;2023-08-07T12:29:34;99456.19;;;14.06;100.00
35519;BME280;21627;48.216;16.482;2023-08-07T12:32:02;99450.91;;;14.12;100.00
35519;BME280;21627;48.216;16.482;2023-08-07T12:34:29;99461.16;;;14.20;100.00
35519;BME280;21627;48.216;16.482;2023-08-07T12:36:59;99443.09;;;14.12;100.00
35519;BME280;21627;48.216;16.482;2023-08-07T12:39:26;99455.94;;;14.21;100.00
35519;BME280;21627;48.216;16.482;2023-08-07T12:41:56;99459.31;;;14.26;100.00
35519;BME280;21627;48.216;16.482;2023-08-07T12:44:27;99460.16;;;14.27;100.00
35519;BME280;21627;48.216;16.482;2023-08-07T12:46:54;99437.53;;;14.31;100.00
35519;BME280;21627;48.216;16.482;2023-08-07T12:49:24;99457.56;;;14.27;100.00
35519;BME280;21627;48.216;16.482;2023-08-07T12:51:51;99467.81;;;14.35;100.00
35519;BME280;21627;48.216;16.482;2023-08-07T12:54:20;99465.16;;;14.36;100.00
35519;BME280;21627;48.216;16.482;2023-08-07T12:56:47;99458.06;;;14.44;100.00
35519;BME280;21627;48.216;16.482;2023-08-07T12:59:14;99445.00;;;14.47;100.00